createdAt,value
2016-12-24T00:00:37.008Z,73.33
2016-12-24T00:01:47.019Z,73.61
2016-12-24T00:02:57.045Z,73.61
2016-12-24T00:04:07.378Z,73.61
2016-12-24T00:05:17.404Z,73.71
2016-12-24T00:06:27.741Z,73.61
2016-12-24T00:07:38.115Z,73.61
2016-12-24T00:08:47.818Z,73.61
2016-12-24T00:09:58.161Z,73.61
2016-12-24T00:11:08.512Z,73.61
2016-12-24T00:12:18.864Z,73.8
2016-12-24T00:13:28.565Z,73.61
2016-12-24T00:14:38.908Z,73.71
2016-12-24T00:15:48.627Z,73.52
2016-12-24T00:16:58.960Z,73.61
2016-12-24T00:18:08.967Z,73.52
2016-12-24T00:19:19.289Z,73.52
2016-12-24T00:20:29.301Z,73.24
2016-12-24T00:21:39.322Z,73.8
2016-12-24T00:22:49.678Z,73.8
2016-12-24T00:23:59.720Z,73.61
2016-12-24T00:25:09.736Z,73.46
2016-12-24T00:26:19.754Z,73.43
2016-12-24T00:27:30.061Z,73.33
2016-12-24T00:28:40.393Z,73.71
2016-12-24T00:29:50.734Z,73.61
2016-12-24T00:31:00.432Z,73.75
2016-12-24T00:32:10.442Z,73.65
2016-12-24T00:33:20.769Z,73.84
2016-12-24T00:34:30.471Z,73.65
2016-12-24T00:35:40.802Z,73.65
2016-12-24T00:36:51.119Z,73.65
2016-12-24T00:38:01.163Z,73.46
2016-12-24T00:39:11.200Z,73.46
2016-12-24T00:40:21.218Z,73.46
2016-12-24T00:41:31.250Z,73.46
2016-12-24T00:42:41.608Z,73.56
2016-12-24T00:43:51.625Z,73.75
2016-12-24T00:45:01.331Z,73.65
2016-12-24T00:46:11.333Z,73.65
2016-12-24T00:47:21.346Z,73.65
2016-12-24T00:48:31.371Z,73.56
2016-12-24T00:49:41.389Z,73.56
2016-12-24T00:50:50.786Z,73.75
2016-12-24T00:52:01.112Z,73.75
2016-12-24T00:53:10.828Z,73.56
2016-12-24T00:54:20.830Z,73.46
2016-12-24T00:55:30.859Z,73.46
2016-12-24T00:56:40.874Z,73.65
2016-12-24T00:57:51.200Z,73.46
2016-12-24T00:59:01.518Z,73.46
2016-12-24T01:00:11.249Z,73.56
2016-12-24T01:01:21.823Z,73.46
2016-12-24T01:02:31.532Z,73.75
2016-12-24T01:03:41.238Z,73.46
2016-12-24T01:04:51.244Z,73.75
2016-12-24T01:06:01.250Z,73.65
2016-12-24T01:07:11.260Z,73.46
2016-12-24T01:08:21.580Z,73.37
2016-12-24T01:09:30.972Z,73.65
2016-12-24T01:10:41.283Z,73.37
2016-12-24T01:11:50.981Z,73.75
2016-12-24T01:13:00.398Z,73.65
2016-12-24T01:14:10.726Z,73.46
2016-12-24T01:15:20.735Z,73.46
2016-12-24T01:16:31.067Z,73.61
2016-12-24T01:17:41.074Z,73.75
2016-12-24T01:18:51.395Z,74.56
2016-12-24T01:20:01.404Z,73.8
2016-12-24T01:21:11.419Z,73.75
2016-12-24T01:22:21.116Z,73.9
2016-12-24T01:23:31.442Z,73.71
2016-12-24T01:24:41.779Z,73.8
2016-12-24T01:25:51.488Z,73.8
2016-12-24T01:27:01.494Z,73.71
2016-12-24T01:28:11.815Z,73.99
2016-12-24T01:29:21.837Z,74.28
2016-12-24T01:30:32.169Z,74.18
2016-12-24T01:31:42.500Z,74.47
2016-12-24T01:32:52.847Z,74.09
2016-12-24T01:34:03.168Z,74.47
2016-12-24T01:35:13.483Z,74.47
2016-12-24T01:36:23.807Z,73.99
2016-12-24T01:37:34.127Z,73.8
2016-12-24T01:38:44.464Z,73.71
2016-12-24T01:39:54.776Z,73.9
2016-12-24T01:41:04.822Z,73.61
2016-12-24T01:42:15.134Z,73.8
2016-12-24T01:43:25.161Z,73.61
2016-12-24T01:44:35.488Z,73.71
2016-12-24T01:45:45.189Z,73.61
2016-12-24T01:46:55.510Z,73.71
2016-12-24T01:48:05.515Z,73.71
2016-12-24T01:49:15.530Z,73.61
2016-12-24T01:50:25.878Z,73.71
2016-12-24T01:51:36.202Z,73.9
2016-12-24T01:52:46.211Z,73.61
2016-12-24T01:53:56.531Z,73.8
2016-12-24T01:55:06.848Z,73.8
2016-12-24T01:56:16.239Z,73.71
2016-12-24T01:57:26.566Z,73.71
2016-12-24T01:58:36.888Z,73.43
2016-12-24T01:59:46.902Z,73.43
2016-12-24T02:00:57.237Z,73.8
2016-12-24T02:02:06.942Z,73.61
2016-12-24T02:03:16.950Z,73.33
2016-12-24T02:04:27.285Z,73.71
2016-12-24T02:05:37.608Z,73.61
2016-12-24T02:06:47.654Z,73.33
2016-12-24T02:07:57.662Z,73.43
2016-12-24T02:09:07.672Z,73.61
2016-12-24T02:10:17.384Z,73.33
2016-12-24T02:11:27.076Z,73.8
2016-12-24T02:12:37.401Z,73.9
2016-12-24T02:13:47.403Z,73.33
2016-12-24T02:14:56.792Z,73.33
2016-12-24T02:16:06.811Z,73.61
2016-12-24T02:17:17.133Z,73.33
2016-12-24T02:18:27.139Z,73.71
2016-12-24T02:19:37.481Z,73.71
2016-12-24T02:20:47.477Z,73.61
2016-12-24T02:21:57.850Z,73.33
2016-12-24T02:23:08.185Z,73.52
2016-12-24T02:24:18.194Z,73.52
2016-12-24T02:25:28.524Z,73.61
2016-12-24T02:26:38.531Z,73.8
2016-12-24T02:27:48.542Z,73.61
2016-12-24T02:28:58.553Z,73.61
2016-12-24T02:30:08.233Z,73.71
2016-12-24T02:31:18.228Z,73.8
2016-12-24T02:32:28.589Z,73.8
2016-12-24T02:33:38.597Z,73.52
2016-12-24T02:34:48.914Z,73.9
2016-12-24T02:35:58.929Z,73.71
2016-12-24T02:37:08.340Z,73.61
2016-12-24T02:38:18.656Z,73.8
2016-12-24T02:39:28.985Z,73.61
2016-12-24T02:40:39.536Z,73.71
2016-12-24T02:41:49.854Z,73.8
2016-12-24T02:43:00.189Z,73.71
2016-12-24T02:44:09.580Z,73.8
2016-12-24T02:45:19.898Z,73.9
2016-12-24T02:46:30.219Z,73.8
2016-12-24T02:47:40.226Z,73.61
2016-12-24T02:48:50.553Z,73.52
2016-12-24T02:50:00.589Z,73.8
2016-12-24T02:51:10.291Z,73.71
2016-12-24T02:52:20.604Z,73.8
2016-12-24T02:53:30.290Z,73.61
2016-12-24T02:54:40.604Z,73.52
2016-12-24T02:55:50.608Z,73.9
2016-12-24T02:57:00.300Z,73.8
2016-12-24T02:58:10.634Z,73.8
2016-12-24T02:59:20.653Z,73.71
2016-12-24T03:00:30.671Z,73.61
2016-12-24T03:01:40.702Z,73.71
2016-12-24T03:33:13.468Z,71.2
2016-12-24T03:34:23.456Z,71.95
2016-12-24T03:35:32.836Z,72.43
2016-12-24T03:36:42.843Z,73.56
2016-12-24T03:37:52.840Z,74.79
2016-12-24T03:39:02.553Z,75.36
2016-12-24T03:40:12.550Z,75.87
2016-12-24T03:41:22.551Z,75.68
2016-12-24T03:42:32.581Z,75.96
2016-12-24T03:43:42.908Z,75.87
2016-12-24T03:44:53.225Z,76.25
2016-12-24T03:46:03.228Z,76.06
2016-12-24T03:47:13.542Z,75.91
2016-12-24T03:48:23.861Z,76.1
2016-12-24T03:49:34.196Z,75.43
2016-12-24T03:50:44.500Z,75.34
2016-12-24T03:51:54.501Z,75.24
2016-12-24T03:53:04.824Z,75.34
2016-12-24T03:54:14.828Z,75.43
2016-12-24T03:55:24.840Z,75.19
2016-12-24T03:56:34.847Z,75.47
2016-12-24T03:57:45.153Z,74.81
2016-12-24T03:58:54.845Z,74.9
2016-12-24T04:00:04.867Z,74.9
2016-12-24T04:01:14.570Z,75.09
2016-12-24T04:02:24.891Z,74.71
2016-12-24T04:03:34.907Z,74.9
2016-12-24T04:04:44.911Z,74.71
2016-12-24T04:05:55.235Z,74.71
2016-12-24T04:07:04.928Z,74.56
2016-12-24T04:08:15.244Z,74.95
2016-12-24T04:09:25.556Z,74.47
2016-12-24T04:10:35.567Z,74.47
2016-12-24T04:11:45.894Z,74.47
2016-12-24T04:12:55.931Z,74.37
2016-12-24T04:14:05.958Z,73.99
2016-12-24T04:15:16.317Z,74.28
2016-12-24T04:16:26.325Z,74.37
2016-12-24T04:17:36.640Z,74.28
2016-12-24T04:18:46.971Z,74.28
2016-12-24T04:19:56.986Z,73.9
2016-12-24T04:21:06.673Z,74.28
2016-12-24T04:22:17.007Z,74.28
2016-12-24T04:23:27.356Z,74.47
2016-12-24T04:24:37.683Z,74.56
2016-12-24T04:25:48.236Z,74.75
2016-12-24T04:26:58.244Z,73.9
2016-12-24T04:28:08.255Z,73.71
2016-12-24T04:29:18.569Z,73.8
2016-12-24T04:30:28.897Z,73.71
2016-12-24T04:31:38.908Z,73.9
2016-12-24T04:32:49.222Z,73.8
2016-12-24T04:33:59.223Z,73.8
2016-12-24T04:35:09.557Z,73.9
2016-12-24T04:36:19.565Z,73.99
2016-12-24T04:37:29.568Z,74.28
2016-12-24T04:38:39.891Z,73.8
2016-12-24T04:39:50.207Z,74.47
2016-12-24T04:40:59.902Z,74.28
2016-12-24T04:42:10.217Z,74.28
2016-12-24T04:43:20.226Z,74.66
2016-12-24T04:44:29.612Z,73.8
2016-12-24T04:45:39.338Z,74.66
2016-12-24T04:46:49.663Z,73.61
2016-12-24T04:48:00.008Z,73.52
2016-12-24T04:49:10.004Z,73.33
2016-12-24T04:50:19.388Z,73.8
2016-12-24T04:51:29.700Z,73.43
2016-12-24T04:52:40.022Z,73.71
2016-12-24T04:53:50.371Z,73.52
2016-12-24T04:55:00.068Z,73.43
2016-12-24T04:56:10.409Z,73.61
2016-12-24T04:57:20.729Z,73.33
2016-12-24T04:58:30.754Z,73.52
2016-12-24T04:59:40.175Z,73.61
2016-12-24T05:00:50.186Z,73.71
2016-12-24T05:02:00.225Z,73.61
2016-12-24T05:03:09.921Z,73.61
2016-12-24T05:04:19.927Z,73.8
2016-12-24T05:05:29.936Z,73.8
2016-12-24T05:06:39.951Z,74.66
2016-12-24T05:07:50.253Z,73.8
2016-12-24T05:09:00.577Z,74.37
2016-12-24T05:10:10.291Z,74.18
2016-12-24T05:11:20.299Z,73.8
2016-12-24T05:12:30.339Z,73.61
2016-12-24T05:13:40.345Z,73.71
2016-12-24T05:14:50.672Z,73.8
2016-12-24T05:16:00.984Z,73.61
2016-12-24T05:17:11.310Z,73.9
2016-12-24T05:18:21.639Z,73.8
2016-12-24T05:19:31.336Z,73.8
2016-12-24T05:20:41.343Z,73.71
2016-12-24T05:21:51.348Z,73.8
2016-12-24T05:23:01.656Z,73.8
2016-12-24T05:24:11.356Z,73.71
2016-12-24T05:25:21.089Z,73.8
2016-12-24T05:26:31.409Z,73.71
2016-12-24T05:27:41.412Z,73.71
2016-12-24T05:28:51.763Z,73.33
2016-12-24T05:30:02.086Z,73.71
2016-12-24T05:31:12.417Z,73.71
2016-12-24T05:32:22.735Z,73.52
2016-12-24T05:33:32.434Z,73.8
2016-12-24T05:34:42.752Z,73.24
2016-12-24T05:35:53.104Z,73.61
2016-12-24T05:37:03.421Z,73.61
2016-12-24T05:38:13.108Z,73.71
2016-12-24T05:39:22.813Z,73.71
2016-12-24T05:40:33.190Z,73.71
2016-12-24T05:41:42.882Z,73.8
2016-12-24T05:42:53.199Z,73.61
2016-12-24T05:44:03.522Z,73.52
2016-12-24T05:45:13.246Z,73.71
2016-12-24T05:46:23.545Z,73.84
2016-12-24T05:47:33.563Z,73.71
2016-12-24T05:48:43.578Z,73.46
2016-12-24T05:49:53.895Z,73.46
2016-12-24T05:51:03.907Z,73.46
2016-12-24T05:52:13.608Z,73.46
2016-12-24T05:53:23.614Z,73.65
2016-12-24T05:54:33.312Z,73.65
2016-12-24T05:55:42.700Z,73.37
2016-12-24T05:56:52.704Z,73.61
2016-12-24T05:58:03.028Z,73.56
2016-12-24T05:59:13.347Z,73.71
2016-12-24T06:00:23.044Z,73.61
2016-12-24T06:01:33.366Z,73.9
2016-12-24T06:02:43.679Z,73.75
2016-12-24T06:03:54.010Z,73.65
2016-12-24T06:05:04.328Z,73.65
2016-12-24T06:06:14.349Z,73.94
2016-12-24T06:07:24.661Z,73.84
2016-12-24T06:08:34.682Z,73.75
2016-12-24T06:09:45.008Z,73.84
2016-12-24T06:10:55.374Z,73.65
2016-12-24T06:12:05.698Z,73.94
2016-12-24T06:13:16.010Z,73.94
2016-12-24T06:14:26.051Z,74.37
2016-12-24T06:15:36.374Z,74.09
2016-12-24T06:16:46.705Z,74.18
2016-12-24T06:17:56.717Z,74.18
2016-12-24T06:19:07.033Z,74.18
2016-12-24T06:20:17.344Z,74.22
2016-12-24T06:21:27.357Z,74.37
2016-12-24T06:22:37.682Z,74.18
2016-12-24T06:23:48.004Z,74.47
2016-12-24T06:24:58.012Z,73.84
2016-12-24T06:26:08.332Z,74.47
2016-12-24T06:27:17.717Z,73.94
2016-12-24T06:28:27.763Z,74.56
2016-12-24T06:29:37.764Z,74.28
2016-12-24T06:30:47.764Z,74.18
2016-12-24T06:31:57.461Z,74.47
2016-12-24T06:33:07.169Z,73.84
2016-12-24T06:34:17.169Z,73.65
2016-12-24T06:35:27.497Z,74.47
2016-12-24T06:36:37.197Z,74.18
2016-12-24T06:37:47.214Z,74.28
2016-12-24T06:38:57.533Z,74.51
2016-12-24T06:40:07.234Z,73.94
2016-12-24T06:41:17.544Z,73.75
2016-12-24T06:42:27.551Z,73.65
2016-12-24T06:43:37.863Z,73.75
2016-12-24T06:44:48.185Z,73.94
2016-12-24T06:45:58.188Z,73.75
2016-12-24T06:47:07.898Z,73.94
2016-12-24T06:48:17.907Z,74.28
2016-12-24T06:49:28.238Z,73.8
2016-12-24T06:50:38.568Z,73.75
2016-12-24T06:51:48.932Z,73.84
2016-12-24T06:52:59.366Z,73.75
2016-12-24T06:54:09.689Z,73.84
2016-12-24T06:55:19.385Z,73.75
2016-12-24T06:56:29.716Z,73.75
2016-12-24T06:57:39.769Z,73.37
2016-12-24T06:58:49.467Z,73.65
2016-12-24T06:59:59.482Z,73.84
2016-12-24T07:01:09.788Z,73.84
2016-12-24T07:02:19.481Z,73.84
2016-12-24T07:03:29.492Z,73.75
2016-12-24T07:04:39.501Z,73.56
2016-12-24T07:05:49.245Z,73.65
2016-12-24T07:06:59.262Z,73.94
2016-12-24T07:08:09.579Z,73.46
2016-12-24T07:09:19.285Z,73.75
2016-12-24T07:10:29.604Z,73.65
2016-12-24T07:11:39.831Z,73.75
2016-12-24T07:12:49.541Z,73.56
2016-12-24T07:13:59.242Z,73.65
2016-12-24T07:15:09.248Z,73.46
2016-12-24T07:16:19.580Z,73.46
2016-12-24T07:17:29.598Z,73.56
2016-12-24T07:18:39.925Z,73.84
2016-12-24T07:19:49.961Z,73.65
2016-12-24T07:20:59.970Z,73.65
2016-12-24T07:22:10.285Z,73.56
2016-12-24T07:23:20.602Z,73.65
2016-12-24T07:24:30.932Z,73.65
2016-12-24T07:25:40.949Z,73.37
2016-12-24T07:26:50.656Z,73.65
2016-12-24T07:28:00.033Z,73.65
2016-12-24T07:29:10.364Z,73.37
2016-12-24T07:30:20.683Z,73.56
2016-12-24T07:31:30.715Z,73.84
2016-12-24T07:32:40.729Z,73.65
2016-12-24T07:33:51.042Z,73.65
2016-12-24T07:35:01.358Z,73.75
2016-12-24T07:36:11.062Z,73.46
2016-12-24T07:37:21.070Z,73.56
2016-12-24T07:38:31.385Z,73.65
2016-12-24T07:39:41.403Z,73.75
2016-12-24T07:40:51.401Z,73.46
2016-12-24T07:42:00.812Z,73.75
2016-12-24T07:43:10.831Z,73.75
2016-12-24T07:44:20.537Z,73.84
2016-12-24T07:45:30.243Z,73.65
2016-12-24T07:46:40.284Z,73.84
2016-12-24T07:47:50.484Z,73.37
2016-12-24T07:49:00.807Z,73.75
2016-12-24T07:50:11.366Z,73.5
2016-12-24T07:51:21.074Z,73.79
2016-12-24T07:52:31.085Z,73.31
2016-12-24T07:53:41.101Z,73.22
2016-12-24T07:54:51.116Z,73.12
2016-12-24T07:56:00.818Z,73.31
2016-12-24T07:57:10.824Z,73.31
2016-12-24T07:58:21.162Z,73.03
2016-12-24T07:59:31.479Z,73.22
2016-12-24T08:00:41.485Z,72.84
2016-12-24T08:01:51.174Z,72.64
2016-12-24T08:03:01.494Z,72.64
2016-12-24T08:04:11.509Z,72.93
2016-12-24T08:05:21.537Z,72.55
2016-12-24T08:06:31.568Z,72.84
2016-12-24T08:07:41.287Z,72.78
2016-12-24T08:08:51.558Z,72.88
2016-12-24T08:10:01.880Z,72.68
2016-12-24T08:11:12.195Z,72.88
2016-12-24T08:12:22.513Z,72.88
2016-12-24T08:13:32.530Z,72.88
2016-12-24T08:14:42.854Z,72.88
2016-12-24T08:15:52.896Z,72.59
2016-12-24T08:17:02.593Z,73.07
2016-12-24T08:18:12.925Z,72.97
2016-12-24T08:19:22.944Z,73.16
2016-12-24T08:20:32.038Z,72.78
2016-12-24T08:21:42.071Z,72.78
2016-12-24T08:22:52.087Z,72.68
2016-12-24T08:24:01.797Z,73.07
2016-12-24T08:25:11.175Z,72.34
2016-12-24T08:26:21.502Z,72.63
2016-12-24T08:27:31.844Z,72.53
2016-12-24T08:28:42.164Z,72.91
2016-12-24T08:29:51.545Z,72.72
2016-12-24T08:31:01.553Z,73.38
2016-12-24T08:32:11.259Z,73.35
2016-12-24T08:33:21.577Z,73.44
2016-12-24T08:34:31.588Z,73.54
2016-12-24T08:35:41.587Z,73.35
2016-12-24T08:36:51.907Z,73.35
2016-12-24T08:38:02.239Z,73.44
2016-12-24T08:39:12.262Z,73.35
2016-12-24T08:40:22.264Z,73.54
2016-12-24T08:41:32.589Z,73.54
2016-12-24T08:42:42.920Z,73.72
2016-12-24T08:43:53.252Z,73.54
2016-12-24T08:45:02.988Z,73.72
2016-12-24T08:46:13.315Z,72.97
2016-12-24T08:47:23.633Z,73.25
2016-12-24T08:48:33.644Z,73.07
2016-12-24T08:49:43.964Z,73.25
2016-12-24T08:50:53.968Z,73.54
2016-12-24T08:52:03.983Z,73.72
2016-12-24T08:53:14.000Z,73.92
2016-12-24T08:54:24.027Z,73.82
2016-12-24T08:55:34.338Z,73.44
2016-12-24T08:56:44.357Z,73.63
2016-12-24T08:57:54.366Z,73.72
2016-12-24T08:59:04.688Z,73.54
2016-12-24T09:00:14.716Z,73.35
2016-12-24T09:01:24.732Z,73.63
2016-12-24T09:02:34.739Z,73.35
2016-12-24T09:03:45.052Z,73.35
2016-12-24T09:04:54.757Z,73.54
2016-12-24T09:06:05.078Z,73.25
2016-12-24T09:07:15.116Z,73.07
2016-12-24T09:08:25.437Z,73.35
2016-12-24T09:09:35.800Z,73.35
2016-12-24T09:10:45.496Z,73.44
2016-12-24T09:11:55.857Z,73.16
2016-12-24T09:13:05.562Z,73.25
2016-12-24T09:14:15.882Z,73.63
2016-12-24T09:15:26.199Z,73.31
2016-12-24T09:16:36.585Z,73.63
2016-12-24T09:17:48.427Z,73.16
2016-12-24T09:18:58.438Z,73.31
2016-12-24T09:20:08.755Z,73.44
2016-12-24T09:21:19.112Z,72.78
2016-12-24T09:22:29.113Z,72.68
2016-12-24T09:23:39.129Z,72.68
2016-12-24T09:24:49.451Z,73.16
2016-12-24T09:25:59.459Z,72.49
2016-12-24T09:27:09.801Z,72.11
2016-12-24T09:28:19.226Z,72.21
2016-12-24T09:29:29.554Z,72.4
2016-12-24T09:30:39.902Z,72.59
2016-12-24T09:31:49.603Z,72.68
2016-12-24T09:32:59.308Z,72.97
2016-12-24T09:34:08.997Z,73.07
2016-12-24T09:35:19.344Z,72.68
2016-12-24T09:36:29.683Z,72.68
2016-12-24T09:37:39.705Z,73.07
2016-12-24T09:38:50.047Z,73.35
2016-12-24T09:40:00.064Z,73.16
2016-12-24T09:41:10.410Z,72.97
2016-12-24T09:42:20.433Z,73.82
2016-12-24T09:43:30.445Z,73.35
2016-12-24T09:44:40.470Z,73.54
2016-12-24T09:45:50.813Z,73.44
2016-12-24T09:47:01.153Z,73.16
2016-12-24T09:48:11.164Z,73.16
2016-12-24T09:49:20.870Z,72.97
2016-12-24T09:50:31.198Z,72.88
2016-12-24T09:51:41.215Z,72.88
2016-12-24T09:52:51.232Z,72.78
2016-12-24T09:54:01.544Z,72.91
2016-12-24T09:55:11.575Z,71.86
2016-12-24T09:56:21.913Z,73
2016-12-24T09:57:31.933Z,72.15
2016-12-24T09:58:41.942Z,72.44
2016-12-24T09:59:52.010Z,72.81
2016-12-24T10:01:02.051Z,72.34
2016-12-24T10:02:12.372Z,72
2016-12-24T10:03:22.702Z,72
2016-12-24T10:04:32.714Z,71.14
2016-12-24T10:05:43.035Z,71.37
2016-12-24T10:06:53.368Z,70.99
2016-12-24T10:08:03.400Z,71.75
2016-12-24T10:09:13.406Z,71.27
2016-12-24T10:10:23.434Z,71.84
2016-12-24T10:11:33.785Z,71.56
2016-12-24T10:12:44.115Z,72.16
2016-12-24T10:13:54.147Z,71.84
2016-12-24T10:15:04.161Z,71.69
2016-12-24T10:16:14.181Z,71.69
2016-12-24T10:17:24.192Z,71.5
2016-12-24T10:18:34.214Z,71.02
2016-12-24T10:19:44.226Z,70.93
2016-12-24T10:20:53.932Z,71.15
2016-12-24T10:22:03.945Z,70.58
2016-12-24T10:23:14.259Z,70.49
2016-12-24T10:24:24.278Z,70.72
2016-12-24T10:25:34.353Z,70.81
2016-12-24T10:26:44.715Z,71.19
2016-12-24T10:27:54.420Z,70.9
2016-12-24T10:29:04.580Z,71.86
2016-12-24T10:30:15.083Z,72.01
2016-12-24T10:31:25.541Z,71.91
2016-12-24T10:32:35.599Z,71.91
2016-12-24T10:33:45.656Z,72.01
2016-12-24T10:34:56.012Z,72.2
2016-12-24T10:36:06.332Z,72.77
2016-12-24T10:37:16.676Z,72.11
2016-12-24T10:38:27.007Z,72.2
2016-12-24T10:39:37.349Z,72.39
2016-12-24T10:40:47.676Z,72.2
2016-12-24T10:41:57.688Z,72.77
2016-12-24T10:43:07.764Z,72.96
2016-12-24T10:44:19.865Z,72.86
2016-12-24T10:45:29.909Z,72.58
2016-12-24T10:46:40.299Z,72.86
2016-12-24T10:47:50.648Z,72.86
2016-12-24T10:49:01.031Z,72.86
2016-12-24T10:50:11.397Z,72.49
2016-12-24T10:51:21.441Z,72.67
2016-12-24T10:52:31.460Z,72.11
2016-12-24T10:53:41.844Z,72.49
2016-12-24T10:54:51.933Z,72.3
2016-12-24T10:56:02.326Z,72.86
2016-12-24T10:57:12.349Z,72.67
2016-12-24T10:58:22.649Z,72.86
2016-12-24T10:59:34.975Z,73.15
2016-12-24T11:00:47.165Z,72.77
2016-12-24T11:02:00.464Z,73.15
2016-12-24T11:03:13.548Z,72.86
2016-12-24T11:04:26.535Z,72.58
2016-12-24T11:05:39.627Z,72.67
2016-12-24T11:06:52.168Z,72.77
2016-12-24T11:08:04.855Z,73.15
2016-12-24T11:09:16.888Z,72.77
2016-12-24T11:10:29.868Z,73.19
2016-12-24T11:11:42.649Z,72.9
2016-12-24T11:12:55.065Z,72.71
2016-12-24T11:14:08.503Z,72.42
2016-12-24T11:15:20.823Z,73
2016-12-24T11:16:33.932Z,73.28
2016-12-24T11:17:46.475Z,73.19
2016-12-24T11:18:59.979Z,73.1
2016-12-24T11:20:14.067Z,72.52
2016-12-24T11:21:26.408Z,72.81
2016-12-24T11:22:38.493Z,72.62
2016-12-24T11:23:49.593Z,73.38
2016-12-24T11:25:02.146Z,73.38
2016-12-24T11:26:13.853Z,73.1
2016-12-24T11:28:48.795Z,72.81
2016-12-24T11:29:58.830Z,72.81
2016-12-24T11:31:08.549Z,72.62
2016-12-24T11:32:18.912Z,72.9
2016-12-24T11:33:29.238Z,72.81
2016-12-24T11:34:39.595Z,72.9
2016-12-24T11:35:49.596Z,72.71
2016-12-24T11:36:59.937Z,72.33
2016-12-24T11:38:09.639Z,73.1
2016-12-24T11:39:19.719Z,73.38
2016-12-24T11:40:29.789Z,73.28
2016-12-24T11:41:39.851Z,72.81
2016-12-24T11:42:50.215Z,73
2016-12-24T11:44:00.271Z,72.81
2016-12-24T11:45:10.373Z,72.81
2016-12-24T11:46:20.468Z,72.9
2016-12-24T11:47:30.845Z,73.1
2016-12-24T11:48:41.230Z,72.71
2016-12-24T11:49:51.294Z,72.9
2016-12-24T11:51:01.905Z,72.9
2016-12-24T11:52:11.947Z,73.19
2016-12-24T11:53:22.328Z,72.81
2016-12-24T11:54:32.686Z,72.86
2016-12-24T11:55:43.013Z,72.96
2016-12-24T11:56:53.510Z,72.86
2016-12-24T11:58:03.851Z,72.86
2016-12-24T11:59:13.876Z,73.44
2016-12-24T12:00:24.211Z,73.72
2016-12-24T12:01:34.575Z,73.63
2016-12-24T12:02:44.303Z,73.53
2016-12-24T12:03:54.674Z,73.63
2016-12-24T12:05:05.042Z,74.01
2016-12-24T12:06:15.393Z,74.1
2016-12-24T12:07:25.440Z,74.07
2016-12-24T12:08:35.500Z,73.88
2016-12-24T12:09:45.884Z,74.07
2016-12-24T12:10:56.215Z,74.44
2016-12-24T12:12:06.582Z,74.54
2016-12-24T12:13:16.305Z,74.63
2016-12-24T12:14:26.324Z,74.63
2016-12-24T12:15:36.390Z,74.44
2016-12-24T12:16:45.786Z,73.88
2016-12-24T12:17:56.122Z,73.69
2016-12-24T12:19:06.447Z,73.97
2016-12-24T12:20:16.823Z,73.97
2016-12-24T12:21:26.870Z,73.78
2016-12-24T12:22:37.232Z,73.88
2016-12-24T12:23:47.274Z,73.84
2016-12-24T12:24:56.996Z,73.55
2016-12-24T12:26:06.726Z,73.93
2016-12-24T12:27:16.753Z,73.55
2016-12-24T12:28:27.088Z,74.03
2016-12-24T12:29:37.115Z,73.46
2016-12-24T12:30:47.132Z,73.55
2016-12-24T12:31:57.478Z,73.3
2016-12-24T12:33:07.825Z,73.36
2016-12-24T12:34:17.882Z,72.83
2016-12-24T12:35:27.920Z,72.83
2016-12-24T12:36:37.942Z,73.21
2016-12-24T12:37:47.968Z,72.83
2016-12-24T12:38:58.307Z,73.3
2016-12-24T12:40:08.665Z,72.92
2016-12-24T12:41:18.688Z,73.11
2016-12-24T12:42:28.100Z,72.92
2016-12-24T12:43:37.821Z,73.21
2016-12-24T12:44:48.170Z,73.78
2016-12-24T12:45:57.885Z,73.11
2016-12-24T12:47:07.926Z,73.49
2016-12-24T12:48:17.989Z,73.3
2016-12-24T12:49:28.341Z,73.4
2016-12-24T12:50:38.382Z,73.4
2016-12-24T12:51:47.803Z,72.92
2016-12-24T12:52:58.145Z,72.83
2016-12-24T12:54:08.502Z,72.92
2016-12-24T12:55:18.863Z,73.02
2016-12-24T12:56:29.205Z,72.83
2016-12-24T12:57:39.549Z,73.4
2016-12-24T12:58:49.309Z,73.49
2016-12-24T12:59:59.692Z,73.4
2016-12-24T13:01:09.731Z,73.78
2016-12-24T13:02:20.094Z,73.59
2016-12-24T13:03:30.441Z,73.88
2016-12-24T13:04:40.808Z,73.69
2016-12-24T13:05:50.550Z,74.07
2016-12-24T13:07:00.896Z,74.07
2016-12-24T13:08:11.258Z,73.88
2016-12-24T13:09:21.615Z,73.97
2016-12-24T13:10:31.977Z,73.93
2016-12-24T13:11:41.688Z,73.65
2016-12-24T13:12:51.430Z,73.65
2016-12-24T13:14:02.022Z,73.78
2016-12-24T13:15:12.405Z,73.84
2016-12-24T13:16:22.471Z,73.88
2016-12-24T13:17:32.521Z,73.65
2016-12-24T13:18:42.931Z,73.93
2016-12-24T13:19:53.302Z,73.84
2016-12-24T13:21:03.357Z,73.84
2016-12-24T13:22:13.423Z,74.03
2016-12-24T13:23:23.188Z,73.84
2016-12-24T13:24:33.555Z,73.84
2016-12-24T13:25:43.586Z,73.93
2016-12-24T13:26:53.948Z,74.03
2016-12-24T13:28:03.693Z,73.84
2016-12-24T13:29:14.049Z,73.74
2016-12-24T13:30:24.131Z,73.74
2016-12-24T13:31:34.488Z,73.93
2016-12-24T13:32:44.537Z,73.55
2016-12-24T13:33:54.887Z,73.74
2016-12-24T13:35:05.234Z,73.9
2016-12-24T13:36:14.967Z,73.93
2016-12-24T13:37:24.078Z,74.03
2016-12-24T13:38:34.434Z,73.9
2016-12-24T13:39:44.791Z,73.8
2016-12-24T13:40:54.842Z,73.8
2016-12-24T13:42:04.904Z,74.66
2016-12-24T13:43:15.248Z,73.8
2016-12-24T13:44:25.323Z,74.47
2016-12-24T13:45:35.049Z,74.66
2016-12-24T13:46:45.071Z,74.37
2016-12-24T13:47:55.458Z,74.37
2016-12-24T13:49:05.830Z,74.47
2016-12-24T13:50:16.167Z,74.47
2016-12-24T13:51:26.228Z,74.56
2016-12-24T13:52:36.256Z,73.99
2016-12-24T13:53:46.289Z,74.47
2016-12-24T13:54:56.343Z,74.66
2016-12-24T13:56:06.420Z,74.56
2016-12-24T13:57:16.751Z,74.66
2016-12-24T13:58:26.801Z,74.56
2016-12-24T13:59:36.829Z,74.56
2016-12-24T14:00:46.888Z,74.47
2016-12-24T14:01:56.951Z,74.47
2016-12-24T14:03:06.980Z,74.47
2016-12-24T14:04:17.327Z,74.56
2016-12-24T14:05:27.349Z,74.37
2016-12-24T14:06:37.722Z,74.66
2016-12-24T14:07:47.748Z,74.62
2016-12-24T14:08:58.078Z,74.43
2016-12-24T14:10:08.120Z,74.43
2016-12-24T14:11:17.224Z,74.52
2016-12-24T14:12:27.264Z,74.52
2016-12-24T14:13:37.626Z,74.62
2016-12-24T14:14:47.978Z,74.43
2016-12-24T14:15:58.329Z,74.33
2016-12-24T14:17:08.349Z,74.43
2016-12-24T14:18:18.702Z,74.52
2016-12-24T14:19:28.139Z,74.62
2016-12-24T14:20:38.494Z,74.43
2016-12-24T14:21:48.863Z,74.52
2016-12-24T14:22:59.264Z,74.15
2016-12-24T14:24:09.336Z,74.62
2016-12-24T14:25:19.685Z,74.52
2016-12-24T14:26:29.411Z,74.62
2016-12-24T14:27:39.749Z,74.43
2016-12-24T14:28:50.105Z,74.62
2016-12-24T14:29:59.832Z,74.43
2016-12-24T14:31:10.181Z,74.52
2016-12-24T14:32:20.208Z,74.71
2016-12-24T14:33:30.565Z,74.33
2016-12-24T14:34:40.593Z,74.52
2016-12-24T14:35:50.383Z,74.62
2016-12-24T14:37:00.430Z,74.62
2016-12-24T14:38:09.554Z,74.52
2016-12-24T14:39:19.904Z,74.52
2016-12-24T14:40:30.256Z,74.52
2016-12-24T14:41:40.623Z,74.43
2016-12-24T14:42:50.939Z,74.24
2016-12-24T14:44:01.291Z,74.24
2016-12-24T14:45:11.028Z,74.62
2016-12-24T14:46:21.084Z,74.62
2016-12-24T14:47:31.436Z,74.62
2016-12-24T14:48:41.796Z,74.62
2016-12-24T14:49:51.860Z,74.43
2016-12-24T14:51:02.221Z,74.33
2016-12-24T14:52:12.295Z,74.62
2016-12-24T14:53:22.019Z,74.62
2016-12-24T14:54:32.055Z,74.52
2016-12-24T14:55:41.779Z,74.33
2016-12-24T14:56:51.509Z,74.62
2016-12-24T14:58:01.859Z,74.62
2016-12-24T14:59:12.196Z,74.05
2016-12-24T15:00:22.568Z,74.24
2016-12-24T15:01:32.911Z,74.43
2016-12-24T15:02:42.980Z,74.52
2016-12-24T15:03:53.329Z,74.24
2016-12-24T15:05:03.383Z,74.24
2016-12-24T15:06:13.413Z,73.96
2016-12-24T15:07:23.762Z,73.96
2016-12-24T15:08:33.519Z,73.96
2016-12-24T15:09:43.294Z,74.62
2016-12-24T15:10:53.653Z,74.52
2016-12-24T15:12:03.700Z,74.15
2016-12-24T15:13:13.729Z,74.62
2016-12-24T15:14:24.079Z,74.62
2016-12-24T15:15:33.820Z,74.43
2016-12-24T15:16:43.544Z,74.43
2016-12-24T15:17:53.895Z,74.52
2016-12-24T15:19:03.923Z,74.43
2016-12-24T15:20:13.961Z,74.62
2016-12-24T15:21:24.326Z,74.62
2016-12-24T15:22:34.683Z,74.62
2016-12-24T15:23:45.039Z,74.62
2016-12-24T15:24:55.097Z,74.62
2016-12-24T15:26:04.828Z,74.62
2016-12-24T15:27:14.235Z,74.3
2016-12-24T15:28:24.308Z,74.71
2016-12-24T15:29:34.332Z,74.71
2016-12-24T15:30:44.388Z,74.62
2016-12-24T15:31:54.424Z,74.43
2016-12-24T15:33:04.787Z,74.62
2016-12-24T15:34:14.864Z,74.33
2016-12-24T15:35:25.226Z,74.71
2016-12-24T15:36:35.257Z,74.62
2016-12-24T15:37:45.614Z,74.43
2016-12-24T15:38:55.634Z,74.49
2016-12-24T15:40:05.353Z,74.62